Time;durP1;ratioP1;P1;durP2;ratioP2;P2;SDS_P1;SDS_P2;PMS_P1;PMS_P2;Temp;Humidity;BMP_temperature;BMP_pressure;BME280_temperature;BME280_humidity;BME280_pressure;Samples;Min_cycle;Max_cycle;Signal;HPM_P1;HPM_P2
2023/08/03 00:00:26;;;;;;;;;1.33;1.33;;;;;;;;5125152;27;47205;-75
2023/08/03 00:02:51;;;;;;;;;6.67;3.00;;;;;;;;5124947;27;46750;-75
2023/08/03 00:05:19;;;;;;;;;1.33;0.33;;;;;;;;5125170;27;45337;-75
2023/08/03 00:07:44;;;;;;;;;6.00;5.00;;;;;;;;5125335;27;45342;-76
2023/08/03 00:10:10;;;;;;;;;3.00;1.33;;;;;;;;5125053;27;45826;-76
2023/08/03 00:12:35;;;;;;;;;3.00;3.00;;;;;;;;5124960;27;46139;-75
2023/08/03 00:15:00;;;;;;;;;2.00;1.67;;;;;;;;5125138;27;45298;-76
2023/08/03 00:17:25;;;;;;;;;3.00;1.00;;;;;;;;5124942;27;45345;-76
2023/08/03 00:19:51;;;;;;;;;5.00;3.00;;;;;;;;5123492;27;46047;-75
2023/08/03 00:22:16;;;;;;;;;4.00;4.00;;;;;;;;5124804;27;46831;-75
2023/08/03 00:24:41;;;;;;;;;4.33;4.00;;;;;;;;5107942;27;45551;-76
2023/08/03 00:27:07;;;;;;;;;2.00;2.00;;;;;;;;5125004;27;45510;-75
2023/08/03 00:29:32;;;;;;;;;6.00;4.00;;;;;;;;5113729;27;45950;-75
2023/08/03 00:32:00;;;;;;;;;3.33;2.67;;;;;;;;5102759;27;46839;-76
2023/08/03 00:34:25;;;;;;;;;6.00;4.67;;;;;;;;5103188;27;45327;-75
2023/08/03 00:36:50;;;;;;;;;4.67;3.67;;;;;;;;5104082;27;45322;-76
2023/08/03 00:39:15;;;;;;;;;2.67;2.33;;;;;;;;5104097;27;45849;-75
2023/08/03 00:41:41;;;;;;;;;3.33;2.67;;;;;;;;5103862;27;47977;-75
2023/08/03 00:44:06;;;;;;;;;3.00;3.00;;;;;;;;5103950;27;45243;-75
2023/08/03 00:46:31;;;;;;;;;4.33;4.00;;;;;;;;5083117;27;45258;-75
2023/08/03 00:48:57;;;;;;;;;3.67;3.67;;;;;;;;5083461;27;45869;-75
2023/08/03 00:51:22;;;;;;;;;5.33;4.00;;;;;;;;5083042;27;48059;-76
2023/08/03 00:53:48;;;;;;;;;3.33;3.33;;;;;;;;5083478;27;45533;-75
2023/08/03 00:56:13;;;;;;;;;5.00;3.00;;;;;;;;5083267;27;45351;-75
2023/08/03 00:58:39;;;;;;;;;3.33;3.33;;;;;;;;5083356;27;47136;-76
2023/08/03 01:01:04;;;;;;;;;4.00;4.00;;;;;;;;5083074;27;46736;-76
2023/08/03 01:03:30;;;;;;;;;1.67;1.67;;;;;;;;5083260;27;45345;-75
2023/08/03 01:05:55;;;;;;;;;2.67;1.67;;;;;;;;5083220;27;45447;-75
2023/08/03 01:08:20;;;;;;;;;7.00;4.00;;;;;;;;5083093;27;45987;-75
2023/08/03 01:10:45;;;;;;;;;3.33;2.33;;;;;;;;5082992;27;47733;-76
2023/08/03 01:13:11;;;;;;;;;6.00;4.00;;;;;;;;5083073;27;45393;-75
2023/08/03 01:15:36;;;;;;;;;3.67;3.67;;;;;;;;5101618;27;45369;-76
2023/08/03 01:18:01;;;;;;;;;2.00;2.00;;;;;;;;5082828;27;46120;-75
2023/08/03 01:20:27;;;;;;;;;7.67;2.67;;;;;;;;5082611;27;47026;-75
2023/08/03 01:22:52;;;;;;;;;3.00;3.00;;;;;;;;5082849;27;45333;-75
2023/08/03 01:25:18;;;;;;;;;1.00;0.00;;;;;;;;5083016;27;45468;-75
2023/08/03 01:27:47;;;;;;;;;3.00;2.33;;;;;;;;5101099;27;45978;-75
2023/08/03 01:30:12;;;;;;;;;4.67;2.00;;;;;;;;5115256;27;46873;-76
2023/08/03 01:32:38;;;;;;;;;4.67;3.67;;;;;;;;5123127;27;45196;-75
2023/08/03 01:35:05;;;;;;;;;4.33;2.00;;;;;;;;5123831;27;45269;-75
2023/08/03 01:37:33;;;;;;;;;5.67;4.67;;;;;;;;5123641;27;45911;-75
2023/08/03 01:39:58;;;;;;;;;2.67;1.00;;;;;;;;5123381;27;47148;-74
2023/08/03 01:42:23;;;;;;;;;4.00;2.00;;;;;;;;5120045;27;45478;-75
2023/08/03 01:44:48;;;;;;;;;4.33;3.33;;;;;;;;5120516;27;45381;-75
2023/08/03 01:47:14;;;;;;;;;2.33;2.00;;;;;;;;5119864;27;46021;-75
2023/08/03 01:49:39;;;;;;;;;3.00;2.33;;;;;;;;5119920;27;45339;-75
2023/08/03 01:52:04;;;;;;;;;3.00;2.33;;;;;;;;5119833;27;45358;-75
2023/08/03 01:54:29;;;;;;;;;2.67;2.00;;;;;;;;5120247;27;45330;-75
2023/08/03 01:56:55;;;;;;;;;2.00;1.67;;;;;;;;5119936;27;46146;-75
2023/08/03 01:59:20;;;;;;;;;1.67;1.67;;;;;;;;5119799;27;46430;-74
2023/08/03 02:01:45;;;;;;;;;4.00;3.00;;;;;;;;5119726;27;45838;-74
2023/08/03 02:04:11;;;;;;;;;2.00;2.00;;;;;;;;5120120;27;45219;-74
2023/08/03 02:06:36;;;;;;;;;1.33;1.33;;;;;;;;5119574;27;46041;-75
2023/08/03 02:09:03;;;;;;;;;2.00;0.67;;;;;;;;5119838;27;47094;-75
2023/08/03 02:11:28;;;;;;;;;3.00;3.00;;;;;;;;5119725;27;45200;-75
2023/08/03 02:13:53;;;;;;;;;4.00;2.33;;;;;;;;5119803;27;45200;-75
2023/08/03 02:16:18;;;;;;;;;2.67;2.33;;;;;;;;5119588;27;45214;-75
2023/08/03 02:18:44;;;;;;;;;1.33;0.00;;;;;;;;5119674;27;46854;-75
2023/08/03 02:21:09;;;;;;;;;1.00;1.00;;;;;;;;5119712;27;45456;-75
2023/08/03 02:23:34;;;;;;;;;3.67;3.67;;;;;;;;5119594;27;45312;-76
2023/08/03 02:26:02;;;;;;;;;1.67;1.00;;;;;;;;5120992;27;45236;-75
2023/08/03 02:28:28;;;;;;;;;1.00;1.00;;;;;;;;5117755;27;47181;-75
2023/08/03 02:30:53;;;;;;;;;4.00;4.00;;;;;;;;5098893;27;45451;-75
2023/08/03 02:33:18;;;;;;;;;4.00;3.00;;;;;;;;5098851;27;45349;-75
2023/08/03 02:35:44;;;;;;;;;2.00;2.00;;;;;;;;5098761;27;46055;-75
2023/08/03 02:38:09;;;;;;;;;2.00;1.67;;;;;;;;5098803;27;46277;-75
2023/08/03 02:40:34;;;;;;;;;2.00;2.00;;;;;;;;5098649;27;45368;-75
2023/08/03 02:42:59;;;;;;;;;2.00;2.00;;;;;;;;5099518;27;45260;-75
2023/08/03 02:45:25;;;;;;;;;3.00;2.00;;;;;;;;5102404;27;45599;-76
2023/08/03 02:47:50;;;;;;;;;4.00;3.00;;;;;;;;5101887;27;48136;-75
2023/08/03 02:50:15;;;;;;;;;3.67;2.00;;;;;;;;5102212;27;45227;-75
2023/08/03 02:52:40;;;;;;;;;5.00;4.00;;;;;;;;5102239;27;45282;-76
2023/08/03 02:55:06;;;;;;;;;1.67;0.67;;;;;;;;5102322;27;47262;-75
2023/08/03 02:57:31;;;;;;;;;1.67;1.67;;;;;;;;5102152;27;46184;-75
2023/08/03 02:59:56;;;;;;;;;1.00;1.00;;;;;;;;5102321;27;45306;-76
2023/08/03 03:02:21;;;;;;;;;3.00;1.00;;;;;;;;5101942;27;45247;-75
2023/08/03 03:04:46;;;;;;;;;2.67;2.67;;;;;;;;5102323;27;46405;-76
2023/08/03 03:07:12;;;;;;;;;2.00;2.00;;;;;;;;5101928;27;46733;-76
2023/08/03 03:09:37;;;;;;;;;1.00;1.00;;;;;;;;5102237;27;45600;-75
2023/08/03 03:12:02;;;;;;;;;3.00;2.00;;;;;;;;5101962;27;45193;-76
2023/08/03 03:14:28;;;;;;;;;1.67;0.67;;;;;;;;5102071;27;46035;-75
2023/08/03 03:16:53;;;;;;;;;2.33;2.33;;;;;;;;5101803;27;45409;-76
2023/08/03 03:19:18;;;;;;;;;2.67;2.00;;;;;;;;5101729;27;45450;-75
2023/08/03 03:21:43;;;;;;;;;2.67;2.67;;;;;;;;5101912;27;45273;-75
2023/08/03 03:24:09;;;;;;;;;4.00;2.00;;;;;;;;5101918;27;45638;-76
2023/08/03 03:26:34;;;;;;;;;2.00;2.00;;;;;;;;5102049;27;46716;-76
2023/08/03 03:28:59;;;;;;;;;3.00;2.33;;;;;;;;5101798;27;45295;-75
2023/08/03 03:31:25;;;;;;;;;1.67;1.00;;;;;;;;5101818;27;45562;-76
2023/08/03 03:33:50;;;;;;;;;1.33;1.33;;;;;;;;5101622;27;46841;-75
2023/08/03 03:36:15;;;;;;;;;1.67;1.67;;;;;;;;5101388;27;46995;-75
2023/08/03 03:38:40;;;;;;;;;4.33;2.67;;;;;;;;5101618;27;45543;-76
2023/08/03 03:41:05;;;;;;;;;4.00;1.00;;;;;;;;5109533;27;45452;-76
2023/08/03 03:43:31;;;;;;;;;3.67;3.00;;;;;;;;5122304;27;45435;-76
2023/08/03 03:45:56;;;;;;;;;5.00;2.00;;;;;;;;5121984;27;45403;-76
2023/08/03 03:48:21;;;;;;;;;2.33;2.00;;;;;;;;5122169;27;45367;-76
2023/08/03 03:50:46;;;;;;;;;1.67;0.67;;;;;;;;5122405;27;45419;-75
2023/08/03 03:53:11;;;;;;;;;3.00;2.00;;;;;;;;5122341;27;46014;-76
2023/08/03 03:55:37;;;;;;;;;3.00;2.00;;;;;;;;5121860;27;46287;-76
2023/08/03 03:58:02;;;;;;;;;4.00;4.00;;;;;;;;5122456;27;45367;-76
2023/08/03 04:00:28;;;;;;;;;2.00;2.00;;;;;;;;5122364;27;45443;-76
2023/08/03 04:02:53;;;;;;;;;2.00;1.00;;;;;;;;5121776;27;46664;-75
2023/08/03 04:05:18;;;;;;;;;2.67;2.00;;;;;;;;5121919;27;48144;-76
2023/08/03 04:07:43;;;;;;;;;3.33;3.00;;;;;;;;5122028;27;45286;-76
2023/08/03 04:10:09;;;;;;;;;1.33;1.33;;;;;;;;5122074;27;45306;-76
2023/08/03 04:12:34;;;;;;;;;3.00;3.00;;;;;;;;5121713;27;46209;-75
2023/08/03 04:14:59;;;;;;;;;3.67;2.00;;;;;;;;5122176;27;46351;-76
2023/08/03 04:17:24;;;;;;;;;1.00;0.00;;;;;;;;5122184;27;45241;-75
2023/08/03 04:19:49;;;;;;;;;4.00;4.00;;;;;;;;5122037;27;45277;-76
2023/08/03 04:22:15;;;;;;;;;2.00;1.00;;;;;;;;5123333;27;45290;-76
2023/08/03 04:24:40;;;;;;;;;2.67;2.00;;;;;;;;5122551;27;45347;-75
2023/08/03 04:27:05;;;;;;;;;2.00;2.00;;;;;;;;5121928;27;45238;-76
2023/08/03 04:29:31;;;;;;;;;1.67;1.00;;;;;;;;5112299;27;45229;-76
2023/08/03 04:31:56;;;;;;;;;5.00;5.00;;;;;;;;5101813;27;46179;-76
2023/08/03 04:34:21;;;;;;;;;4.33;3.00;;;;;;;;5101829;27;47556;-76
2023/08/03 04:36:47;;;;;;;;;2.33;2.33;;;;;;;;5101734;27;45247;-76
2023/08/03 04:39:13;;;;;;;;;3.33;3.33;;;;;;;;5100966;27;45441;-75
2023/08/03 04:41:38;;;;;;;;;5.00;4.00;;;;;;;;5101231;27;45963;-76
2023/08/03 04:44:03;;;;;;;;;3.67;3.00;;;;;;;;5101131;27;46313;-76
2023/08/03 04:46:28;;;;;;;;;2.67;1.33;;;;;;;;5101370;27;45281;-76
2023/08/03 04:48:53;;;;;;;;;4.00;3.00;;;;;;;;5101977;27;45329;-76
2023/08/03 04:51:19;;;;;;;;;3.67;3.33;;;;;;;;5102614;27;46046;-76
2023/08/03 04:53:44;;;;;;;;;3.33;3.00;;;;;;;;5101906;27;46471;-76
2023/08/03 04:56:09;;;;;;;;;5.00;5.00;;;;;;;;5102175;27;45357;-76
2023/08/03 04:58:35;;;;;;;;;3.00;2.00;;;;;;;;5101902;27;45401;-76
2023/08/03 05:01:00;;;;;;;;;3.33;2.67;;;;;;;;5101296;27;45664;-76
2023/08/03 05:03:25;;;;;;;;;2.33;2.33;;;;;;;;5101485;27;45604;-76
2023/08/03 05:05:50;;;;;;;;;1.00;0.67;;;;;;;;5100898;27;45380;-76
2023/08/03 05:08:16;;;;;;;;;2.00;2.00;;;;;;;;5102370;27;45380;-76
2023/08/03 05:10:41;;;;;;;;;2.00;2.00;;;;;;;;5101308;27;45345;-76
2023/08/03 05:13:06;;;;;;;;;4.00;3.00;;;;;;;;5100850;27;45499;-75
2023/08/03 05:15:31;;;;;;;;;2.00;1.67;;;;;;;;5101287;27;45440;-76
2023/08/03 05:18:00;;;;;;;;;1.67;1.67;;;;;;;;5101282;27;45453;-76
2023/08/03 05:20:26;;;;;;;;;1.33;1.33;;;;;;;;5100858;27;46323;-75
2023/08/03 05:22:51;;;;;;;;;2.00;2.00;;;;;;;;5099884;27;46786;-75
2023/08/03 05:25:16;;;;;;;;;3.00;3.00;;;;;;;;5102292;27;45278;-75
2023/08/03 05:27:41;;;;;;;;;2.33;2.33;;;;;;;;5102477;27;45172;-76
2023/08/03 05:30:07;;;;;;;;;3.00;3.00;;;;;;;;5116937;27;47326;-76
2023/08/03 05:32:32;;;;;;;;;6.00;2.00;;;;;;;;5122849;27;47350;-76
2023/08/03 05:34:57;;;;;;;;;2.00;1.00;;;;;;;;5121868;27;45320;-76
2023/08/03 05:37:22;;;;;;;;;3.00;2.00;;;;;;;;5121382;27;45301;-76
2023/08/03 05:39:48;;;;;;;;;1.00;1.00;;;;;;;;5121765;27;45321;-76
2023/08/03 05:42:14;;;;;;;;;4.00;3.00;;;;;;;;5121280;27;46949;-76
2023/08/03 05:44:39;;;;;;;;;2.33;2.33;;;;;;;;5121919;27;45360;-76
2023/08/03 05:47:05;;;;;;;;;3.00;2.00;;;;;;;;5122033;27;45441;-76
2023/08/03 05:49:30;;;;;;;;;3.00;3.00;;;;;;;;5121040;27;45399;-76
2023/08/03 05:51:56;;;;;;;;;2.33;1.33;;;;;;;;5121218;27;48015;-76
2023/08/03 05:54:21;;;;;;;;;4.00;3.00;;;;;;;;5120620;27;45332;-76
2023/08/03 05:56:46;;;;;;;;;1.67;1.67;;;;;;;;5120883;27;45454;-76
2023/08/03 05:59:16;;;;;;;;;3.00;3.00;;;;;;;;5120815;27;45338;-76
2023/08/03 06:01:42;;;;;;;;;3.00;2.00;;;;;;;;5121104;27;46248;-77
2023/08/03 06:04:09;;;;;;;;;1.00;1.00;;;;;;;;5121332;27;45774;-76
2023/08/03 06:06:34;;;;;;;;;3.33;2.33;;;;;;;;5121311;27;45288;-76
2023/08/03 06:09:00;;;;;;;;;3.00;3.00;;;;;;;;5120465;27;46281;-76
2023/08/03 06:11:25;;;;;;;;;3.67;2.00;;;;;;;;5120515;27;48254;-76
2023/08/03 06:13:51;;;;;;;;;3.00;2.00;;;;;;;;5121147;27;45318;-76
2023/08/03 06:16:16;;;;;;;;;2.00;1.33;;;;;;;;5119648;27;45383;-76
2023/08/03 06:18:48;;;;;;;;;3.33;2.33;;;;;;;;5119962;27;45674;-76
2023/08/03 06:21:14;;;;;;;;;3.33;2.00;;;;;;;;5100140;27;48260;-76
2023/08/03 06:23:40;;;;;;;;;4.00;4.00;;;;;;;;5099888;27;45413;-77
2023/08/03 06:26:11;;;;;;;;;3.00;3.00;;;;;;;;5098606;27;45315;-76
2023/08/03 06:28:37;;;;;;;;;3.00;2.33;;;;;;;;5101366;27;45808;-76
2023/08/03 06:31:09;;;;;;;;;2.00;2.00;;;;;;;;5119078;27;47743;-77
2023/08/03 06:33:34;;;;;;;;;4.00;4.00;;;;;;;;5120296;27;45940;-75
2023/08/03 06:36:00;;;;;;;;;2.00;2.00;;;;;;;;5119480;27;45203;-76
2023/08/03 06:38:27;;;;;;;;;4.00;3.00;;;;;;;;5120590;27;46126;-77
2023/08/03 06:40:52;;;;;;;;;4.33;3.33;;;;;;;;5119220;27;46364;-76
2023/08/03 06:43:17;;;;;;;;;2.33;2.33;;;;;;;;5120598;27;45292;-76
2023/08/03 06:45:43;;;;;;;;;3.00;3.00;;;;;;;;5122638;27;45242;-75
2023/08/03 06:48:09;;;;;;;;;3.00;3.00;;;;;;;;5120965;27;45506;-76
2023/08/03 06:50:34;;;;;;;;;3.67;2.33;;;;;;;;5119290;27;48126;-75
2023/08/03 06:53:02;;;;;;;;;2.00;2.00;;;;;;;;5108217;27;45440;-75
2023/08/03 06:55:27;;;;;;;;;4.00;3.00;;;;;;;;5101430;27;45342;-76
2023/08/03 06:57:52;;;;;;;;;4.00;2.00;;;;;;;;5098518;27;45979;-76
2023/08/03 07:00:17;;;;;;;;;3.67;2.67;;;;;;;;5098509;27;46130;-75
2023/08/03 07:02:44;;;;;;;;;2.67;2.00;;;;;;;;5098488;27;45315;-76
2023/08/03 07:05:10;;;;;;;;;14.67;12.67;;;;;;;;5098532;27;45278;-76
2023/08/03 07:07:35;;;;;;;;;3.67;3.00;;;;;;;;5097140;27;45964;-77
2023/08/03 07:10:00;;;;;;;;;3.00;3.00;;;;;;;;5098350;27;47861;-77
2023/08/03 07:12:26;;;;;;;;;2.00;2.00;;;;;;;;5098348;27;45244;-76
2023/08/03 07:14:51;;;;;;;;;2.00;2.00;;;;;;;;5098459;27;45248;-77
2023/08/03 07:17:16;;;;;;;;;5.00;3.67;;;;;;;;5098108;27;46718;-75
2023/08/03 07:19:42;;;;;;;;;3.00;3.00;;;;;;;;5097129;27;48046;-77
2023/08/03 07:22:08;;;;;;;;;6.00;5.67;;;;;;;;5098204;27;45306;-77
2023/08/03 07:24:34;;;;;;;;;6.00;5.00;;;;;;;;5098339;27;45278;-77
2023/08/03 07:27:00;;;;;;;;;4.67;3.00;;;;;;;;5099575;27;45865;-76
2023/08/03 07:29:26;;;;;;;;;2.00;1.00;;;;;;;;5108207;27;47737;-76
2023/08/03 07:31:51;;;;;;;;;4.00;4.00;;;;;;;;5121951;27;45414;-76
2023/08/03 07:34:16;;;;;;;;;4.00;4.00;;;;;;;;5122025;27;45379;-76
2023/08/03 07:36:42;;;;;;;;;6.67;6.67;;;;;;;;5122147;27;46577;-76
2023/08/03 07:39:07;;;;;;;;;5.33;4.67;;;;;;;;5122082;27;45320;-76
2023/08/03 07:41:33;;;;;;;;;3.67;3.00;;;;;;;;5122013;27;45379;-76
2023/08/03 07:43:58;;;;;;;;;3.00;3.00;;;;;;;;5122438;27;45321;-75
2023/08/03 07:46:23;;;;;;;;;3.00;3.00;;;;;;;;5121536;27;46839;-76
2023/08/03 07:48:50;;;;;;;;;4.00;3.00;;;;;;;;5104918;27;47224;-76
2023/08/03 07:51:16;;;;;;;;;4.00;4.00;;;;;;;;5121757;27;45338;-75
2023/08/03 07:53:41;;;;;;;;;5.00;5.00;;;;;;;;5122162;27;45313;-76
2023/08/03 07:56:20;;;;;;;;;4.00;3.00;;;;;;;;5121921;27;45975;-75
2023/08/03 07:58:46;;;;;;;;;2.33;2.33;;;;;;;;5121535;27;47241;-76
2023/08/03 08:01:11;;;;;;;;;2.67;2.67;;;;;;;;5120586;27;45374;-76
2023/08/03 08:03:40;;;;;;;;;3.33;2.67;;;;;;;;5122167;27;45337;-75
2023/08/03 08:06:06;;;;;;;;;4.67;3.00;;;;;;;;5121594;27;47235;-75
2023/08/03 08:08:31;;;;;;;;;3.00;3.00;;;;;;;;5121707;27;46617;-75
2023/08/03 08:10:57;;;;;;;;;3.00;2.00;;;;;;;;5121589;27;45230;-75
2023/08/03 08:13:22;;;;;;;;;5.00;4.00;;;;;;;;5121731;27;45237;-75
2023/08/03 08:15:47;;;;;;;;;4.33;3.33;;;;;;;;5121408;27;45779;-75
2023/08/03 08:18:12;;;;;;;;;4.00;3.67;;;;;;;;5121699;27;47386;-75
2023/08/03 08:20:39;;;;;;;;;1.67;1.67;;;;;;;;5121420;27;45179;-75
2023/08/03 08:23:04;;;;;;;;;3.67;3.33;;;;;;;;5121810;27;45240;-75
2023/08/03 08:25:33;;;;;;;;;3.67;3.67;;;;;;;;5121430;27;47158;-76
2023/08/03 08:27:58;;;;;;;;;4.67;3.67;;;;;;;;5121420;27;46508;-75
2023/08/03 08:30:23;;;;;;;;;2.67;2.67;;;;;;;;5103122;27;45368;-75
2023/08/03 08:32:48;;;;;;;;;2.33;2.00;;;;;;;;5100645;27;45296;-75
2023/08/03 08:35:14;;;;;;;;;7.67;5.00;;;;;;;;5100476;27;47292;-75
2023/08/03 08:37:39;;;;;;;;;4.67;3.33;;;;;;;;5102029;27;45394;-76
2023/08/03 08:40:05;;;;;;;;;4.33;3.67;;;;;;;;5100193;27;45337;-76
2023/08/03 08:42:30;;;;;;;;;3.33;3.33;;;;;;;;5099626;27;45330;-75
2023/08/03 08:44:55;;;;;;;;;5.00;4.00;;;;;;;;5087638;27;46993;-75
2023/08/03 08:47:20;;;;;;;;;6.67;4.67;;;;;;;;5079062;28;47638;-76
2023/08/03 08:49:45;;;;;;;;;4.67;4.00;;;;;;;;5079541;28;45339;-76
2023/08/03 08:52:11;;;;;;;;;3.67;3.00;;;;;;;;5079753;28;45168;-75
2023/08/03 08:54:37;;;;;;;;;2.67;2.00;;;;;;;;5079972;28;45573;-75
2023/08/03 08:57:02;;;;;;;;;4.33;4.33;;;;;;;;5079600;28;47535;-76
2023/08/03 08:59:27;;;;;;;;;4.00;4.00;;;;;;;;5079881;28;45252;-75
2023/08/03 09:01:53;;;;;;;;;5.00;3.67;;;;;;;;5079707;28;45272;-74
2023/08/03 09:04:25;;;;;;;;;3.00;3.00;;;;;;;;5079724;28;45272;-76
2023/08/03 09:06:52;;;;;;;;;2.00;1.67;;;;;;;;5079430;28;45241;-75
2023/08/03 09:09:24;;;;;;;;;3.00;2.67;;;;;;;;5079747;28;45254;-75
2023/08/03 09:11:49;;;;;;;;;3.00;3.00;;;;;;;;5079616;28;45347;-75
2023/08/03 09:14:14;;;;;;;;;5.00;2.67;;;;;;;;5079560;28;47331;-75
2023/08/03 09:16:40;;;;;;;;;6.00;6.00;;;;;;;;5079241;28;46322;-75
2023/08/03 09:19:05;;;;;;;;;4.00;4.00;;;;;;;;5079638;28;45295;-75
2023/08/03 09:21:30;;;;;;;;;5.00;5.00;;;;;;;;5079362;28;45261;-74
2023/08/03 09:23:56;;;;;;;;;5.00;5.00;;;;;;;;5079482;28;45915;-75
2023/08/03 09:26:22;;;;;;;;;4.33;4.00;;;;;;;;5079427;28;46910;-75
2023/08/03 09:28:47;;;;;;;;;6.00;5.33;;;;;;;;5083570;27;45278;-75
2023/08/03 09:31:21;;;;;;;;;5.00;4.00;;;;;;;;5099657;27;45246;-76
2023/08/03 09:33:54;;;;;;;;;6.67;5.00;;;;;;;;5099842;27;46842;-75
2023/08/03 09:36:19;;;;;;;;;3.00;3.00;;;;;;;;5100899;27;46152;-75
2023/08/03 09:38:44;;;;;;;;;3.67;3.67;;;;;;;;5099569;27;45270;-75
2023/08/03 09:41:12;;;;;;;;;5.33;5.00;;;;;;;;5108124;27;45313;-75
2023/08/03 09:43:39;;;;;;;;;5.00;4.00;;;;;;;;5120274;27;46121;-75
2023/08/03 09:46:05;;;;;;;;;4.00;4.00;;;;;;;;5119913;27;48082;-75
2023/08/03 09:48:30;;;;;;;;;5.00;4.00;;;;;;;;5119960;27;45362;-75
2023/08/03 09:50:57;;;;;;;;;3.33;3.00;;;;;;;;5119927;27;45385;-75
2023/08/03 09:53:28;;;;;;;;;3.00;3.00;;;;;;;;5119767;27;45967;-75
2023/08/03 09:56:03;;;;;;;;;0.67;0.67;;;;;;;;5119813;27;46336;-75
2023/08/03 09:58:42;;;;;;;;;8.33;5.33;;;;;;;;5119874;27;45292;-75
2023/08/03 10:01:09;;;;;;;;;7.00;5.00;;;;;;;;5119909;27;45364;-75
2023/08/03 10:03:35;;;;;;;;;6.00;4.00;;;;;;;;5102927;27;45892;-75
2023/08/03 10:06:03;;;;;;;;;5.00;4.00;;;;;;;;5119603;27;46981;-76
2023/08/03 10:08:42;;;;;;;;;2.75;2.75;;;;;;;;5119951;27;45200;-75
2023/08/03 10:11:10;;;;;;;;;3.00;2.50;;;;;;;;5120024;27;45298;-75
2023/08/03 10:13:37;;;;;;;;;5.00;4.00;;;;;;;;5119811;27;46301;-77
2023/08/03 10:16:02;;;;;;;;;2.67;2.33;;;;;;;;5119415;27;47827;-75
2023/08/03 10:18:29;;;;;;;;;6.67;5.00;;;;;;;;5119654;27;45316;-76
2023/08/03 10:20:55;;;;;;;;;3.00;3.00;;;;;;;;5119898;27;45328;-76
2023/08/03 10:23:21;;;;;;;;;5.00;5.00;;;;;;;;5119376;27;45477;-76
2023/08/03 10:25:51;;;;;;;;;3.00;3.00;;;;;;;;5119607;27;47281;-76
2023/08/03 10:28:16;;;;;;;;;3.00;2.00;;;;;;;;5119665;27;45316;-76
2023/08/03 10:31:00;;;;;;;;;4.00;2.00;;;;;;;;5078496;27;45292;-76
2023/08/03 10:33:45;;;;;;;;;4.00;3.00;;;;;;;;5078197;28;46795;-76
2023/08/03 10:36:30;;;;;;;;;1.25;1.25;;;;;;;;5078114;28;47118;-76
2023/08/03 10:38:59;;;;;;;;;3.00;3.00;;;;;;;;5078484;28;45282;-75
2023/08/03 10:41:26;;;;;;;;;4.67;4.67;;;;;;;;5078157;28;45464;-75
2023/08/03 10:44:07;;;;;;;;;1.67;1.67;;;;;;;;5077925;28;46595;-76
2023/08/03 10:46:33;;;;;;;;;4.00;2.25;;;;;;;;5076848;28;47194;-75
2023/08/03 10:48:58;;;;;;;;;4.67;3.00;;;;;;;;5078218;28;45305;-75
2023/08/03 10:51:23;;;;;;;;;3.00;3.00;;;;;;;;5077965;28;45199;-75
2023/08/03 10:53:51;;;;;;;;;1.50;1.50;;;;;;;;5079741;27;45209;-75
2023/08/03 10:56:17;;;;;;;;;2.67;2.67;;;;;;;;5091890;27;46275;-75
2023/08/03 10:58:42;;;;;;;;;3.00;3.00;;;;;;;;5098239;27;45494;-75
2023/08/03 11:01:08;;;;;;;;;3.00;2.33;;;;;;;;5098099;27;45420;-74
2023/08/03 11:03:37;;;;;;;;;2.67;1.67;;;;;;;;5098068;27;45607;-76
2023/08/03 11:06:02;;;;;;;;;2.33;2.33;;;;;;;;5101446;27;46936;-77
2023/08/03 11:08:28;;;;;;;;;4.67;1.00;;;;;;;;5101842;27;45266;-76
2023/08/03 11:10:54;;;;;;;;;1.75;1.00;;;;;;;;5101391;27;45200;-75
2023/08/03 11:13:20;;;;;;;;;3.00;3.00;;;;;;;;5101693;27;46625;-74
2023/08/03 11:15:45;;;;;;;;;2.00;2.00;;;;;;;;5101196;27;47715;-75
2023/08/03 11:18:16;;;;;;;;;2.00;1.00;;;;;;;;5101939;27;45285;-76
2023/08/03 11:20:42;;;;;;;;;2.00;2.00;;;;;;;;5101368;27;45312;-75
2023/08/03 11:23:11;;;;;;;;;3.00;3.00;;;;;;;;5101650;27;47234;-74
2023/08/03 11:25:36;;;;;;;;;4.33;3.67;;;;;;;;5101713;27;46609;-75
2023/08/03 11:28:01;;;;;;;;;2.67;1.33;;;;;;;;5100784;27;46020;-76
2023/08/03 11:30:27;;;;;;;;;2.00;1.67;;;;;;;;5120137;27;45381;-75
2023/08/03 11:32:58;;;;;;;;;2.00;2.00;;;;;;;;5121787;27;45967;-75
2023/08/03 11:35:24;;;;;;;;;2.00;2.00;;;;;;;;5122163;27;46292;-75
2023/08/03 11:37:49;;;;;;;;;3.00;1.00;;;;;;;;5117280;27;45305;-75
2023/08/03 11:40:14;;;;;;;;;3.00;3.00;;;;;;;;5101996;27;45328;-74
2023/08/03 11:42:43;;;;;;;;;2.00;1.00;;;;;;;;5104607;27;45955;-74
2023/08/03 11:45:08;;;;;;;;;3.33;3.33;;;;;;;;5104538;27;47988;-74
2023/08/03 11:48:00;;;;;;;;;3.33;2.67;;;;;;;;5103929;27;45384;-73
2023/08/03 11:50:25;;;;;;;;;1.33;1.00;;;;;;;;5100457;27;45345;-75
2023/08/03 11:53:00;;;;;;;;;3.00;3.00;;;;;;;;5104435;27;45840;-74
2023/08/03 11:55:30;;;;;;;;;1.00;1.00;;;;;;;;5104115;27;46991;-74
2023/08/03 11:58:07;;;;;;;;;4.67;2.00;;;;;;;;5104383;27;45302;-74
2023/08/03 12:00:33;;;;;;;;;3.33;3.00;;;;;;;;5104153;27;45269;-73
2023/08/03 12:02:58;;;;;;;;;2.33;2.33;;;;;;;;5104054;27;45821;-74
2023/08/03 12:05:23;;;;;;;;;3.00;3.00;;;;;;;;5104007;27;48322;-75
2023/08/03 12:07:52;;;;;;;;;1.00;1.00;;;;;;;;5104514;27;45276;-75
2023/08/03 12:10:17;;;;;;;;;2.00;2.00;;;;;;;;5104476;27;45336;-76
2023/08/03 12:12:43;;;;;;;;;2.00;1.00;;;;;;;;5104242;27;46554;-75
2023/08/03 12:15:11;;;;;;;;;2.00;2.00;;;;;;;;5104232;27;47597;-76
2023/08/03 12:17:37;;;;;;;;;2.00;2.00;;;;;;;;5104070;27;45279;-75
2023/08/03 12:20:02;;;;;;;;;2.75;2.75;;;;;;;;5104664;27;45246;-75
2023/08/03 12:22:27;;;;;;;;;2.00;2.00;;;;;;;;5104047;27;45980;-76
2023/08/03 12:24:52;;;;;;;;;3.00;3.00;;;;;;;;5103869;27;45308;-75
2023/08/03 12:27:17;;;;;;;;;1.00;1.00;;;;;;;;5104252;27;45322;-75
2023/08/03 12:29:43;;;;;;;;;3.00;2.00;;;;;;;;5116456;27;45239;-76
2023/08/03 12:32:08;;;;;;;;;2.75;2.75;;;;;;;;5124314;27;45957;-76
2023/08/03 12:34:33;;;;;;;;;3.25;3.00;;;;;;;;5124592;27;46875;-76
2023/08/03 12:36:59;;;;;;;;;2.00;2.00;;;;;;;;5124498;27;45315;-76
2023/08/03 12:39:24;;;;;;;;;2.75;1.75;;;;;;;;5124717;27;45384;-76
2023/08/03 12:41:49;;;;;;;;;1.00;1.00;;;;;;;;5124430;27;45340;-76
2023/08/03 12:44:15;;;;;;;;;5.00;2.00;;;;;;;;5124113;27;47125;-76
2023/08/03 12:46:41;;;;;;;;;2.50;1.00;;;;;;;;5124155;27;45356;-76
2023/08/03 12:49:06;;;;;;;;;0.75;0.75;;;;;;;;5124841;27;45349;-76
2023/08/03 12:51:31;;;;;;;;;1.00;1.00;;;;;;;;5124124;27;45377;-75
2023/08/03 12:53:56;;;;;;;;;2.00;1.00;;;;;;;;5124254;27;46859;-75
2023/08/03 12:56:22;;;;;;;;;1.25;1.25;;;;;;;;5124251;27;45833;-76
2023/08/03 12:58:47;;;;;;;;;1.00;1.00;;;;;;;;5124491;27;45413;-76
2023/08/03 13:01:12;;;;;;;;;1.25;1.25;;;;;;;;5124277;27;46957;-75
2023/08/03 13:03:38;;;;;;;;;1.75;1.75;;;;;;;;5121651;27;47005;-75
2023/08/03 13:06:03;;;;;;;;;0.50;0.50;;;;;;;;5103403;27;45311;-75
2023/08/03 13:08:29;;;;;;;;;1.00;1.00;;;;;;;;5103314;27;45380;-75
2023/08/03 13:10:54;;;;;;;;;1.25;1.25;;;;;;;;5103522;27;45338;-76
2023/08/03 13:13:19;;;;;;;;;0.00;0.00;;;;;;;;5103533;27;47858;-75
2023/08/03 13:15:48;;;;;;;;;1.00;1.00;;;;;;;;5103460;27;45794;-75
2023/08/03 13:18:14;;;;;;;;;1.25;1.25;;;;;;;;5103432;27;45368;-75
2023/08/03 13:20:39;;;;;;;;;2.00;2.00;;;;;;;;5103278;27;45734;-75
2023/08/03 13:23:05;;;;;;;;;2.00;1.00;;;;;;;;5103001;27;47751;-75
2023/08/03 13:25:30;;;;;;;;;3.00;3.00;;;;;;;;5103410;27;45387;-75
2023/08/03 13:27:56;;;;;;;;;1.75;1.75;;;;;;;;5102743;27;45283;-75
2023/08/03 13:30:21;;;;;;;;;2.00;1.50;;;;;;;;5120676;27;45728;-76
2023/08/03 13:32:47;;;;;;;;;3.00;2.25;;;;;;;;5123298;27;47132;-76
2023/08/03 13:35:12;;;;;;;;;2.25;2.00;;;;;;;;5106562;27;45314;-76
2023/08/03 13:37:37;;;;;;;;;2.25;2.25;;;;;;;;5123724;27;45366;-75
2023/08/03 13:40:03;;;;;;;;;4.50;3.50;;;;;;;;5123806;27;46580;-76
2023/08/03 13:42:28;;;;;;;;;2.00;2.00;;;;;;;;5123245;27;46695;-76
2023/08/03 13:44:55;;;;;;;;;2.75;2.25;;;;;;;;5123680;27;45440;-75
2023/08/03 13:47:20;;;;;;;;;2.25;2.00;;;;;;;;5123568;27;45483;-75
2023/08/03 13:49:45;;;;;;;;;2.00;2.00;;;;;;;;5123276;27;45599;-75
2023/08/03 13:52:10;;;;;;;;;2.75;2.50;;;;;;;;5123454;27;47999;-76
2023/08/03 13:54:35;;;;;;;;;1.75;1.75;;;;;;;;5123461;27;45292;-76
2023/08/03 13:57:01;;;;;;;;;3.50;3.50;;;;;;;;5123708;27;45253;-76
2023/08/03 13:59:26;;;;;;;;;2.25;2.25;;;;;;;;5123436;27;47186;-75
2023/08/03 14:01:51;;;;;;;;;2.00;2.00;;;;;;;;5141955;27;45212;-76
2023/08/03 14:04:18;;;;;;;;;5.25;2.00;;;;;;;;5123431;27;45246;-77
2023/08/03 14:06:44;;;;;;;;;4.00;2.25;;;;;;;;5123324;27;45280;-76
2023/08/03 14:09:11;;;;;;;;;0.50;0.50;;;;;;;;5123385;27;46899;-75
2023/08/03 14:11:36;;;;;;;;;0.25;0.00;;;;;;;;5123273;27;46990;-76
2023/08/03 14:14:03;;;;;;;;;0.00;0.00;;;;;;;;5123270;27;45344;-75
2023/08/03 14:16:28;;;;;;;;;0.00;0.00;;;;;;;;5123341;27;45344;-75
2023/08/03 14:18:53;;;;;;;;;0.00;0.00;;;;;;;;5123055;27;45416;-76
2023/08/03 14:21:19;;;;;;;;;0.00;0.00;;;;;;;;5123142;27;46265;-76
2023/08/03 14:23:44;;;;;;;;;0.00;0.00;;;;;;;;5123159;27;45659;-76
2023/08/03 14:26:09;;;;;;;;;0.00;0.00;;;;;;;;5123304;27;45383;-76
2023/08/03 14:28:34;;;;;;;;;0.00;0.00;;;;;;;;5119038;27;46102;-76
2023/08/03 14:31:02;;;;;;;;;0.00;0.00;;;;;;;;5122542;27;46637;-75
2023/08/03 14:33:27;;;;;;;;;1.00;0.00;;;;;;;;5122512;27;45292;-74
2023/08/03 14:35:53;;;;;;;;;0.00;0.00;;;;;;;;5122884;27;45233;-75